Time;durP1;ratioP1;P1;durP2;ratioP2;P2;SDS_P1;SDS_P2;PMS_P1;PMS_P2;Temp;Humidity;BMP_temperature;BMP_pressure;BME280_temperature;BME280_humidity;BME280_pressure;Samples;Min_cycle;Max_cycle;Signal;HPM_P1;HPM_P2
2023/09/17 00:02:15;;;;;;;7.03;6.00;;;;;;;;;;4984626;28;20112;-79
2023/09/17 00:04:40;;;;;;;7.88;5.80;;;;;;;;;;4982936;28;20379;-79
2023/09/17 00:07:06;;;;;;;6.68;5.63;;;;;;;;;;4967020;28;20056;-79
2023/09/17 00:09:31;;;;;;;7.20;6.10;;;;;;;;;;4987317;28;20019;-79
2023/09/17 00:11:57;;;;;;;7.60;6.00;;;;;;;;;;4990024;28;20421;-79
2023/09/17 00:14:22;;;;;;;6.80;5.65;;;;;;;;;;4971127;28;20030;-79
2023/09/17 00:16:48;;;;;;;11.90;6.13;;;;;;;;;;4994596;28;20137;-79
2023/09/17 00:19:13;;;;;;;8.50;5.85;;;;;;;;;;4977135;28;20422;-78
2023/09/17 00:21:39;;;;;;;8.13;5.60;;;;;;;;;;4984658;28;20025;-78
2023/09/17 00:24:04;;;;;;;9.10;6.32;;;;;;;;;;4969458;28;20112;-79
2023/09/17 00:26:30;;;;;;;8.23;6.05;;;;;;;;;;4994110;28;20360;-79
2023/09/17 00:28:55;;;;;;;8.35;6.10;;;;;;;;;;4990626;28;20022;-79
2023/09/17 00:31:21;;;;;;;9.00;6.03;;;;;;;;;;4987271;28;20030;-79
2023/09/17 00:33:46;;;;;;;8.10;6.05;;;;;;;;;;4965721;28;20382;-79
2023/09/17 00:36:11;;;;;;;8.43;6.07;;;;;;;;;;4993786;28;20046;-82
2023/09/17 00:38:37;;;;;;;9.30;6.53;;;;;;;;;;4969225;28;20109;-83
2023/09/17 00:41:02;;;;;;;8.07;6.22;;;;;;;;;;4970348;28;20146;-82
2023/09/17 00:43:27;;;;;;;8.35;6.68;;;;;;;;;;4970294;28;20035;-82
2023/09/17 00:45:53;;;;;;;8.23;5.95;;;;;;;;;;4986284;28;20041;-82
2023/09/17 00:48:18;;;;;;;8.98;6.68;;;;;;;;;;4965258;28;20031;-81
2023/09/17 00:50:44;;;;;;;9.00;6.43;;;;;;;;;;4969493;28;20021;-82
2023/09/17 00:53:10;;;;;;;8.48;6.35;;;;;;;;;;4983810;28;20097;-82
2023/09/17 00:55:37;;;;;;;8.23;6.13;;;;;;;;;;4987301;28;20378;-82
2023/09/17 00:58:04;;;;;;;7.88;5.72;;;;;;;;;;4983721;28;20030;-82
2023/09/17 01:00:31;;;;;;;7.60;6.15;;;;;;;;;;4966772;28;20391;-82
2023/09/17 01:03:00;;;;;;;8.50;6.32;;;;;;;;;;4967934;28;20041;-82
2023/09/17 01:05:36;;;;;;;8.65;6.50;;;;;;;;;;4975343;28;20486;-82
2023/09/17 01:08:03;;;;;;;7.57;6.20;;;;;;;;;;4977000;28;20018;-82
2023/09/17 01:10:29;;;;;;;7.43;5.93;;;;;;;;;;4998051;28;20545;-82
2023/09/17 01:12:55;;;;;;;7.85;6.10;;;;;;;;;;4992942;28;20034;-82
2023/09/17 01:15:20;;;;;;;7.85;5.82;;;;;;;;;;4985056;28;20106;-81
2023/09/17 01:17:45;;;;;;;7.55;6.20;;;;;;;;;;4969013;28;20027;-82
2023/09/17 01:20:29;;;;;;;7.75;6.38;;;;;;;;;;4970208;28;20070;-82
2023/09/17 01:22:59;;;;;;;7.97;5.65;;;;;;;;;;4984340;28;20050;-83
2023/09/17 01:25:56;;;;;;;8.57;6.32;;;;;;;;;;4965774;28;20037;-80
2023/09/17 01:28:22;;;;;;;6.97;5.45;;;;;;;;;;4968680;28;20486;-82
2023/09/17 01:30:48;;;;;;;7.13;5.70;;;;;;;;;;4968856;28;20411;-81
2023/09/17 01:33:13;;;;;;;8.27;5.93;;;;;;;;;;4969038;28;20069;-82
2023/09/17 01:35:51;;;;;;;6.82;5.57;;;;;;;;;;4987962;28;20465;-82
2023/09/17 01:38:19;;;;;;;7.65;5.72;;;;;;;;;;4963239;28;20031;-82
2023/09/17 01:40:48;;;;;;;6.90;5.20;;;;;;;;;;4967094;28;20030;-82
2023/09/17 01:43:17;;;;;;;6.88;5.07;;;;;;;;;;4986479;28;20081;-82
2023/09/17 01:45:43;;;;;;;7.68;5.30;;;;;;;;;;4965079;28;20130;-82
2023/09/17 01:48:09;;;;;;;7.55;5.10;;;;;;;;;;4965315;28;20491;-81
2023/09/17 01:50:35;;;;;;;8.68;6.57;;;;;;;;;;4987395;28;20058;-80
2023/09/17 01:53:00;;;;;;;8.50;6.35;;;;;;;;;;4987061;28;20080;-81
2023/09/17 01:55:26;;;;;;;5.97;5.07;;;;;;;;;;4964532;28;20015;-82
2023/09/17 01:57:52;;;;;;;6.80;5.13;;;;;;;;;;4964641;28;21293;-81
2023/09/17 02:00:18;;;;;;;6.78;5.53;;;;;;;;;;4964422;28;21783;-81
2023/09/17 02:02:49;;;;;;;8.25;5.40;;;;;;;;;;4983908;28;20106;-81
2023/09/17 02:05:16;;;;;;;6.43;5.00;;;;;;;;;;4969920;28;20426;-82
2023/09/17 02:07:44;;;;;;;7.93;6.38;;;;;;;;;;4988830;28;20041;-82
2023/09/17 02:10:10;;;;;;;7.90;5.78;;;;;;;;;;4987946;28;20678;-82
2023/09/17 02:12:35;;;;;;;8.60;5.57;;;;;;;;;;4966507;28;20222;-84
2023/09/17 02:15:01;;;;;;;12.75;5.60;;;;;;;;;;4967633;28;20089;-84
2023/09/17 02:17:26;;;;;;;7.70;5.35;;;;;;;;;;4987968;28;20029;-83
2023/09/17 02:19:51;;;;;;;7.72;5.22;;;;;;;;;;4988469;28;20074;-82
2023/09/17 02:22:17;;;;;;;7.28;5.28;;;;;;;;;;4984474;28;20076;-82
2023/09/17 02:24:42;;;;;;;7.47;5.50;;;;;;;;;;4968746;28;20371;-82
2023/09/17 02:27:08;;;;;;;8.10;5.70;;;;;;;;;;4964634;28;20058;-83
2023/09/17 02:29:34;;;;;;;7.85;4.85;;;;;;;;;;4969118;28;20033;-84
2023/09/17 02:31:59;;;;;;;8.13;5.63;;;;;;;;;;4970280;28;20042;-84
2023/09/17 02:34:24;;;;;;;8.18;5.60;;;;;;;;;;4980626;28;20022;-85
2023/09/17 02:36:50;;;;;;;8.15;5.90;;;;;;;;;;4968380;28;20129;-86
2023/09/17 02:39:15;;;;;;;8.30;6.15;;;;;;;;;;4968639;28;20075;-82
2023/09/17 02:41:40;;;;;;;8.45;5.45;;;;;;;;;;4982029;28;20018;-86
2023/09/17 02:44:06;;;;;;;8.02;5.50;;;;;;;;;;4969637;28;20084;-83
2023/09/17 02:46:32;;;;;;;8.05;5.80;;;;;;;;;;4967720;28;20060;-84
2023/09/17 02:48:57;;;;;;;8.60;5.80;;;;;;;;;;4964477;28;20034;-83
2023/09/17 02:51:23;;;;;;;8.00;5.80;;;;;;;;;;4983589;28;20041;-83
2023/09/17 02:53:49;;;;;;;8.63;5.85;;;;;;;;;;4965911;28;20026;-84
2023/09/17 02:56:15;;;;;;;9.02;5.95;;;;;;;;;;4963031;28;20494;-79
2023/09/17 02:58:40;;;;;;;7.40;5.25;;;;;;;;;;4956166;28;20036;-80
2023/09/17 03:01:17;;;;;;;8.30;6.40;;;;;;;;;;4964763;28;20030;-80
2023/09/17 03:03:46;;;;;;;9.18;6.10;;;;;;;;;;4967762;28;20058;-80
2023/09/17 03:06:11;;;;;;;8.77;6.05;;;;;;;;;;4986475;28;20034;-79
2023/09/17 03:08:42;;;;;;;9.82;6.95;;;;;;;;;;4987766;28;20092;-79
2023/09/17 03:11:17;;;;;;;8.52;6.85;;;;;;;;;;4986271;28;20077;-78
2023/09/17 03:13:46;;;;;;;10.00;6.85;;;;;;;;;;4971111;28;20035;-78
2023/09/17 03:16:15;;;;;;;9.73;7.25;;;;;;;;;;4963590;28;20032;-78
2023/09/17 03:18:42;;;;;;;8.00;6.22;;;;;;;;;;4977110;28;20035;-77
2023/09/17 03:21:08;;;;;;;8.48;7.45;;;;;;;;;;4967358;28;20034;-79
2023/09/17 03:23:33;;;;;;;8.05;6.53;;;;;;;;;;4984334;28;20022;-78
2023/09/17 03:26:01;;;;;;;7.82;6.25;;;;;;;;;;4985804;28;20034;-78
2023/09/17 03:28:27;;;;;;;9.57;7.00;;;;;;;;;;4967108;28;20034;-78
2023/09/17 03:30:53;;;;;;;9.75;7.60;;;;;;;;;;4986064;28;20130;-78
2023/09/17 03:33:18;;;;;;;9.18;7.45;;;;;;;;;;4963305;28;20038;-78
2023/09/17 03:35:44;;;;;;;8.75;7.45;;;;;;;;;;4980718;28;20104;-78
2023/09/17 03:38:09;;;;;;;10.93;7.43;;;;;;;;;;4986813;28;20073;-78
2023/09/17 03:40:35;;;;;;;8.57;6.95;;;;;;;;;;4973229;28;20148;-78
2023/09/17 03:43:00;;;;;;;8.95;7.47;;;;;;;;;;4969532;28;20040;-78
2023/09/17 03:45:25;;;;;;;7.82;6.47;;;;;;;;;;4992162;28;20018;-78
2023/09/17 03:47:51;;;;;;;9.52;7.85;;;;;;;;;;4988606;28;20161;-78
2023/09/17 03:50:17;;;;;;;10.00;7.43;;;;;;;;;;4980191;28;20399;-78
2023/09/17 03:52:46;;;;;;;9.07;6.80;;;;;;;;;;4972730;28;20022;-77
2023/09/17 03:55:12;;;;;;;9.82;7.57;;;;;;;;;;4986865;28;20386;-77
2023/09/17 03:57:39;;;;;;;9.25;7.80;;;;;;;;;;4976567;28;20116;-78
2023/09/17 04:00:10;;;;;;;9.00;7.38;;;;;;;;;;4984570;28;20038;-79
2023/09/17 04:02:37;;;;;;;8.65;6.88;;;;;;;;;;4971332;28;20051;-78
2023/09/17 04:05:08;;;;;;;9.13;7.72;;;;;;;;;;4988626;28;20094;-78
2023/09/17 04:07:34;;;;;;;9.55;8.25;;;;;;;;;;4977887;28;20375;-77
2023/09/17 04:10:00;;;;;;;8.70;7.18;;;;;;;;;;4968567;28;20125;-79
2023/09/17 04:12:25;;;;;;;9.85;7.78;;;;;;;;;;4991581;28;20026;-78
2023/09/17 04:14:50;;;;;;;9.05;7.30;;;;;;;;;;4977306;28;20390;-77
2023/09/17 04:17:16;;;;;;;9.95;7.40;;;;;;;;;;4991058;28;20033;-83
2023/09/17 04:19:41;;;;;;;9.50;7.22;;;;;;;;;;4981484;28;20033;-85
2023/09/17 04:22:07;;;;;;;10.20;7.90;;;;;;;;;;4985860;28;20022;-83
2023/09/17 04:24:32;;;;;;;9.25;7.20;;;;;;;;;;4975122;28;20023;-85
2023/09/17 04:26:57;;;;;;;10.05;7.32;;;;;;;;;;4972708;28;20030;-84
2023/09/17 04:29:23;;;;;;;10.50;7.78;;;;;;;;;;4976927;28;20434;-84
2023/09/17 04:31:49;;;;;;;10.20;7.75;;;;;;;;;;4969775;28;20403;-83
2023/09/17 04:34:15;;;;;;;9.98;8.00;;;;;;;;;;4986756;28;20026;-84
2023/09/17 04:36:40;;;;;;;10.73;8.70;;;;;;;;;;4987891;28;20030;-83
2023/09/17 04:39:09;;;;;;;9.65;7.88;;;;;;;;;;4973259;28;20034;-84
2023/09/17 04:41:34;;;;;;;11.63;8.68;;;;;;;;;;4986412;28;20026;-84
2023/09/17 04:44:00;;;;;;;9.98;7.57;;;;;;;;;;4964655;28;20454;-83
2023/09/17 04:46:25;;;;;;;10.02;8.05;;;;;;;;;;4982138;28;20549;-83
2023/09/17 04:48:51;;;;;;;8.95;7.45;;;;;;;;;;4975880;28;20033;-83
2023/09/17 04:51:16;;;;;;;9.73;7.38;;;;;;;;;;4966783;28;20027;-84
2023/09/17 04:53:43;;;;;;;12.93;7.95;;;;;;;;;;4965492;28;20077;-84
2023/09/17 04:56:08;;;;;;;10.35;7.63;;;;;;;;;;4989154;28;20100;-82
2023/09/17 04:58:33;;;;;;;10.55;8.20;;;;;;;;;;4967366;28;20426;-83
2023/09/17 05:00:59;;;;;;;12.60;9.38;;;;;;;;;;4985957;28;20026;-84
2023/09/17 05:03:24;;;;;;;9.18;7.45;;;;;;;;;;4964989;28;20022;-83
2023/09/17 05:05:50;;;;;;;9.57;7.47;;;;;;;;;;4983306;28;20088;-83
2023/09/17 05:08:18;;;;;;;12.90;9.40;;;;;;;;;;4981645;28;20026;-84
2023/09/17 05:10:44;;;;;;;9.20;7.97;;;;;;;;;;4985612;28;20026;-84
2023/09/17 05:13:09;;;;;;;9.95;8.60;;;;;;;;;;4983646;28;20680;-83
2023/09/17 05:15:35;;;;;;;9.13;7.05;;;;;;;;;;4987431;28;20041;-79
2023/09/17 05:18:06;;;;;;;10.13;7.80;;;;;;;;;;4969339;28;20053;-77
2023/09/17 05:20:31;;;;;;;10.88;8.77;;;;;;;;;;4972307;28;20428;-79
2023/09/17 05:22:56;;;;;;;9.73;7.38;;;;;;;;;;4965937;28;20022;-79
2023/09/17 05:25:22;;;;;;;7.88;6.50;;;;;;;;;;4972509;28;20477;-83
2023/09/17 05:27:47;;;;;;;10.75;8.23;;;;;;;;;;4967996;28;20033;-83
2023/09/17 05:30:13;;;;;;;9.57;7.55;;;;;;;;;;4981523;28;20026;-83
2023/09/17 05:32:39;;;;;;;10.98;8.23;;;;;;;;;;4979135;28;20026;-83
2023/09/17 05:35:05;;;;;;;9.45;8.10;;;;;;;;;;4988413;28;20025;-84
2023/09/17 05:37:30;;;;;;;11.00;7.95;;;;;;;;;;4989461;28;20054;-83
2023/09/17 05:39:56;;;;;;;10.38;8.20;;;;;;;;;;4972377;28;20073;-84
2023/09/17 05:42:21;;;;;;;10.40;8.63;;;;;;;;;;4970971;28;20018;-84
2023/09/17 05:44:47;;;;;;;11.98;9.50;;;;;;;;;;4961911;28;20018;-84
2023/09/17 05:47:12;;;;;;;11.00;8.55;;;;;;;;;;4986198;28;20068;-82
2023/09/17 05:49:37;;;;;;;12.25;9.07;;;;;;;;;;4961728;28;20033;-84
2023/09/17 05:52:03;;;;;;;10.65;8.30;;;;;;;;;;4968894;28;20066;-84
2023/09/17 05:54:29;;;;;;;9.68;7.85;;;;;;;;;;4982417;28;20042;-84
2023/09/17 05:56:54;;;;;;;12.07;9.32;;;;;;;;;;4961830;28;20034;-84
2023/09/17 05:59:19;;;;;;;11.20;9.77;;;;;;;;;;4980913;28;21730;-84
2023/09/17 06:01:45;;;;;;;10.85;9.20;;;;;;;;;;4977721;28;20114;-78
2023/09/17 06:04:10;;;;;;;9.48;7.68;;;;;;;;;;4960135;28;20034;-78
2023/09/17 06:06:36;;;;;;;10.02;7.78;;;;;;;;;;4978624;28;20025;-79
2023/09/17 06:09:01;;;;;;;10.30;8.40;;;;;;;;;;4982420;28;20026;-77
2023/09/17 06:11:26;;;;;;;12.20;9.18;;;;;;;;;;4980779;28;20039;-78
2023/09/17 06:13:52;;;;;;;10.45;8.88;;;;;;;;;;4970218;28;20046;-78
2023/09/17 06:16:17;;;;;;;10.95;9.05;;;;;;;;;;4973640;28;20027;-78
2023/09/17 06:18:42;;;;;;;9.73;7.97;;;;;;;;;;4977656;28;20028;-78
2023/09/17 06:21:08;;;;;;;10.70;8.63;;;;;;;;;;4968837;28;20023;-77
2023/09/17 06:23:33;;;;;;;9.18;8.13;;;;;;;;;;4969453;28;20379;-78
2023/09/17 06:25:59;;;;;;;9.82;7.90;;;;;;;;;;4964479;28;20026;-84
2023/09/17 06:28:25;;;;;;;8.95;6.90;;;;;;;;;;4966381;28;20030;-83
2023/09/17 06:30:51;;;;;;;10.23;7.53;;;;;;;;;;4985812;28;20122;-84
2023/09/17 06:33:16;;;;;;;8.75;7.03;;;;;;;;;;4980199;28;20034;-85
2023/09/17 06:35:41;;;;;;;8.60;6.88;;;;;;;;;;4965048;28;20034;-82
2023/09/17 06:38:07;;;;;;;11.07;6.88;;;;;;;;;;4982558;28;20605;-84
2023/09/17 06:40:32;;;;;;;10.50;8.30;;;;;;;;;;4965008;28;20117;-84
2023/09/17 06:42:57;;;;;;;10.60;8.00;;;;;;;;;;4994476;28;20125;-85
2023/09/17 06:45:23;;;;;;;9.77;7.70;;;;;;;;;;4979781;28;20033;-84
2023/09/17 06:47:49;;;;;;;8.23;7.15;;;;;;;;;;4984986;28;20105;-84
2023/09/17 06:50:14;;;;;;;8.20;6.93;;;;;;;;;;4978666;28;20026;-83
2023/09/17 06:52:40;;;;;;;8.57;7.05;;;;;;;;;;4954586;28;20382;-83
2023/09/17 06:55:05;;;;;;;10.90;8.70;;;;;;;;;;4978855;28;20022;-81
2023/09/17 06:57:31;;;;;;;11.65;7.38;;;;;;;;;;4976801;28;20049;-81
2023/09/17 07:00:00;;;;;;;7.95;7.15;;;;;;;;;;4977989;28;20022;-83
2023/09/17 07:02:25;;;;;;;13.70;7.88;;;;;;;;;;4974282;28;20034;-83
2023/09/17 07:04:50;;;;;;;9.18;7.28;;;;;;;;;;4977354;28;20018;-83
2023/09/17 07:07:16;;;;;;;9.02;7.32;;;;;;;;;;4974163;28;20042;-82
2023/09/17 07:09:43;;;;;;;9.25;6.95;;;;;;;;;;4974016;28;20053;-81
2023/09/17 07:12:08;;;;;;;10.43;7.80;;;;;;;;;;4978908;28;20026;-83
2023/09/17 07:14:33;;;;;;;8.32;6.03;;;;;;;;;;4957017;28;20392;-83
2023/09/17 07:16:59;;;;;;;12.05;8.48;;;;;;;;;;4979742;28;20038;-83
2023/09/17 07:19:24;;;;;;;7.97;7.00;;;;;;;;;;4988464;28;20034;-83
2023/09/17 07:21:49;;;;;;;9.63;7.75;;;;;;;;;;4965729;28;20030;-85
2023/09/17 07:24:15;;;;;;;11.48;8.63;;;;;;;;;;4980850;28;20034;-85
2023/09/17 07:26:42;;;;;;;8.90;7.28;;;;;;;;;;4967027;28;20053;-84
2023/09/17 07:29:07;;;;;;;9.82;7.28;;;;;;;;;;4982280;28;20053;-85
2023/09/17 07:31:32;;;;;;;10.93;8.55;;;;;;;;;;4974423;28;20684;-84
2023/09/17 07:33:58;;;;;;;9.45;7.63;;;;;;;;;;4974875;28;20028;-86
2023/09/17 07:36:23;;;;;;;9.70;8.02;;;;;;;;;;4985798;28;20033;-82
2023/09/17 07:38:49;;;;;;;10.05;8.65;;;;;;;;;;4993420;28;20041;-82
2023/09/17 07:41:14;;;;;;;9.10;8.07;;;;;;;;;;4969582;28;20045;-82
2023/09/17 07:43:40;;;;;;;15.55;8.30;;;;;;;;;;4987998;28;20412;-82
2023/09/17 07:46:06;;;;;;;10.82;9.07;;;;;;;;;;4969659;28;20514;-77
2023/09/17 07:48:31;;;;;;;9.45;7.78;;;;;;;;;;4987276;28;20113;-78
2023/09/17 07:50:58;;;;;;;9.05;7.80;;;;;;;;;;4984042;28;20033;-77
2023/09/17 07:53:24;;;;;;;11.27;8.15;;;;;;;;;;4989808;28;20273;-79
2023/09/17 07:55:50;;;;;;;9.40;7.50;;;;;;;;;;4979982;28;20084;-77
2023/09/17 07:58:15;;;;;;;9.43;7.93;;;;;;;;;;4966912;28;20438;-78
2023/09/17 08:00:41;;;;;;;9.95;7.60;;;;;;;;;;4983362;28;20031;-78
2023/09/17 08:03:06;;;;;;;10.05;7.95;;;;;;;;;;4983583;28;20493;-77
2023/09/17 08:05:33;;;;;;;10.02;7.65;;;;;;;;;;4981698;28;20035;-77
2023/09/17 08:07:59;;;;;;;10.77;7.50;;;;;;;;;;4965305;28;20026;-77
2023/09/17 08:10:24;;;;;;;9.65;7.57;;;;;;;;;;4984448;28;20026;-78
2023/09/17 08:12:49;;;;;;;11.30;7.47;;;;;;;;;;4989959;28;20037;-78
2023/09/17 08:15:16;;;;;;;11.18;7.55;;;;;;;;;;4968510;28;20030;-77
2023/09/17 08:17:43;;;;;;;9.55;7.60;;;;;;;;;;4987775;28;20522;-77
2023/09/17 08:20:11;;;;;;;10.05;7.63;;;;;;;;;;4985176;28;20034;-78
2023/09/17 08:22:37;;;;;;;12.30;9.15;;;;;;;;;;4975256;28;20033;-78
2023/09/17 08:25:03;;;;;;;9.43;6.70;;;;;;;;;;4984563;28;20417;-79
2023/09/17 08:27:28;;;;;;;10.80;8.48;;;;;;;;;;4987131;28;20393;-78
2023/09/17 08:29:53;;;;;;;10.25;8.45;;;;;;;;;;4985727;28;20102;-77
2023/09/17 08:32:19;;;;;;;9.85;7.88;;;;;;;;;;4982452;28;20089;-77
2023/09/17 08:34:44;;;;;;;9.07;7.18;;;;;;;;;;4972091;28;20027;-78
2023/09/17 08:37:09;;;;;;;10.85;7.78;;;;;;;;;;4987689;28;20091;-78
2023/09/17 08:39:35;;;;;;;8.63;7.03;;;;;;;;;;4968935;28;20121;-78
2023/09/17 08:42:01;;;;;;;7.97;6.28;;;;;;;;;;4966115;28;20034;-78
2023/09/17 08:44:29;;;;;;;9.07;6.57;;;;;;;;;;4969850;28;20489;-78
2023/09/17 08:46:58;;;;;;;8.52;6.68;;;;;;;;;;4991547;28;20417;-77
2023/09/17 08:49:24;;;;;;;9.55;7.43;;;;;;;;;;4988471;28;20034;-78
2023/09/17 08:51:52;;;;;;;9.95;8.10;;;;;;;;;;4979862;28;20030;-78
2023/09/17 08:54:24;;;;;;;8.93;6.78;;;;;;;;;;4963455;28;20804;-78
2023/09/17 08:56:52;;;;;;;9.73;7.13;;;;;;;;;;4984703;28;20022;-82
2023/09/17 08:59:28;;;;;;;11.43;9.13;;;;;;;;;;4986128;28;20085;-83
2023/09/17 09:01:54;;;;;;;9.05;7.03;;;;;;;;;;4966281;28;20031;-83
2023/09/17 09:04:22;;;;;;;9.52;7.55;;;;;;;;;;4967918;28;20045;-82
2023/09/17 09:06:47;;;;;;;10.02;7.38;;;;;;;;;;4969543;28;20117;-83
2023/09/17 09:09:14;;;;;;;12.40;9.02;;;;;;;;;;4966887;28;20121;-83
2023/09/17 09:11:40;;;;;;;9.85;6.80;;;;;;;;;;4986394;28;20038;-83
2023/09/17 09:14:09;;;;;;;11.45;8.30;;;;;;;;;;4975969;28;20030;-82
2023/09/17 09:16:37;;;;;;;10.50;7.32;;;;;;;;;;4991286;28;20038;-83
2023/09/17 09:19:03;;;;;;;10.98;7.28;;;;;;;;;;4984742;28;20030;-82
2023/09/17 09:21:28;;;;;;;10.85;8.52;;;;;;;;;;4986583;28;20072;-83
2023/09/17 09:23:57;;;;;;;11.55;8.98;;;;;;;;;;4965480;28;20478;-83
2023/09/17 09:26:39;;;;;;;11.93;8.15;;;;;;;;;;4971556;28;20042;-83
2023/09/17 09:29:08;;;;;;;10.10;7.15;;;;;;;;;;4984418;28;20038;-83
2023/09/17 09:31:34;;;;;;;14.00;10.43;;;;;;;;;;4965242;28;20022;-82
2023/09/17 09:34:01;;;;;;;9.77;7.45;;;;;;;;;;4985354;28;20505;-83
2023/09/17 09:36:34;;;;;;;11.13;8.35;;;;;;;;;;4986294;28;20026;-83
2023/09/17 09:39:01;;;;;;;10.27;7.85;;;;;;;;;;4965710;28;20034;-83
2023/09/17 09:41:29;;;;;;;10.88;8.00;;;;;;;;;;4978392;28;20063;-82
2023/09/17 09:43:56;;;;;;;10.10;7.72;;;;;;;;;;4966439;28;20019;-83
2023/09/17 09:46:24;;;;;;;13.40;10.00;;;;;;;;;;4990767;28;20483;-83
2023/09/17 09:48:51;;;;;;;15.77;9.60;;;;;;;;;;4990318;28;20105;-83
2023/09/17 09:51:17;;;;;;;14.88;9.88;;;;;;;;;;4982870;28;20034;-82
2023/09/17 09:53:43;;;;;;;13.30;9.52;;;;;;;;;;4981465;28;20120;-83
2023/09/17 09:56:08;;;;;;;17.65;10.75;;;;;;;;;;4984498;28;20049;-82
2023/09/17 09:58:35;;;;;;;16.00;10.63;;;;;;;;;;4961610;28;20040;-83
2023/09/17 10:01:04;;;;;;;14.20;8.95;;;;;;;;;;4973114;28;20037;-83
2023/09/17 10:03:29;;;;;;;14.38;9.45;;;;;;;;;;4960303;28;20100;-83
2023/09/17 10:06:04;;;;;;;10.95;8.68;;;;;;;;;;4959917;28;20376;-78
2023/09/17 10:08:29;;;;;;;16.02;11.18;;;;;;;;;;4969968;28;20434;-79
2023/09/17 10:10:55;;;;;;;16.75;11.63;;;;;;;;;;4977941;28;20023;-78
2023/09/17 10:13:20;;;;;;;12.50;9.02;;;;;;;;;;4970802;28;20084;-78
2023/09/17 10:15:47;;;;;;;15.27;11.05;;;;;;;;;;4983365;28;20033;-78
2023/09/17 10:18:14;;;;;;;15.35;11.32;;;;;;;;;;4968528;28;20621;-78
2023/09/17 10:20:43;;;;;;;14.98;9.35;;;;;;;;;;4982548;28;20030;-79
2023/09/17 10:23:10;;;;;;;12.98;9.43;;;;;;;;;;4982099;28;20704;-78
2023/09/17 10:25:37;;;;;;;13.32;9.52;;;;;;;;;;4985037;28;20029;-79
2023/09/17 10:28:02;;;;;;;16.00;11.18;;;;;;;;;;4959802;28;20513;-79
2023/09/17 10:30:30;;;;;;;11.02;8.05;;;;;;;;;;4972047;28;20026;-79
2023/09/17 10:32:57;;;;;;;20.45;12.63;;;;;;;;;;4965210;28;20109;-79
2023/09/17 10:35:23;;;;;;;19.17;12.63;;;;;;;;;;4960953;28;20027;-79
2023/09/17 10:37:49;;;;;;;14.27;9.55;;;;;;;;;;4984525;28;20040;-79
2023/09/17 10:40:15;;;;;;;14.88;10.48;;;;;;;;;;4985750;28;20521;-79
2023/09/17 10:42:41;;;;;;;14.75;10.77;;;;;;;;;;4986502;28;20030;-79
2023/09/17 10:45:09;;;;;;;14.00;10.73;;;;;;;;;;4972789;28;20032;-79
2023/09/17 10:47:36;;;;;;;19.65;14.23;;;;;;;;;;4969443;28;20034;-79
2023/09/17 10:50:05;;;;;;;19.50;12.93;;;;;;;;;;4986903;28;20433;-78
2023/09/17 10:52:31;;;;;;;14.85;10.95;;;;;;;;;;4959331;28;20031;-79
2023/09/17 10:54:57;;;;;;;21.88;15.27;;;;;;;;;;4977597;28;20080;-78
2023/09/17 10:57:47;;;;;;;24.27;16.23;;;;;;;;;;4979111;28;20030;-80
2023/09/17 11:00:20;;;;;;;15.98;11.27;;;;;;;;;;4962104;28;20299;-80
2023/09/17 11:02:50;;;;;;;21.10;16.63;;;;;;;;;;4979789;28;20853;-80
2023/09/17 11:05:19;;;;;;;21.50;12.93;;;;;;;;;;4977381;28;20134;-80
2023/09/17 11:07:44;;;;;;;20.55;14.82;;;;;;;;;;4960073;28;20318;-79
2023/09/17 11:10:14;;;;;;;31.50;18.55;;;;;;;;;;4982768;28;20383;-79
2023/09/17 11:12:41;;;;;;;27.10;19.58;;;;;;;;;;4959861;28;20164;-79
2023/09/17 11:15:08;;;;;;;28.25;18.58;;;;;;;;;;4968361;28;20034;-79
2023/09/17 11:17:34;;;;;;;24.02;18.02;;;;;;;;;;4983271;28;20109;-79
2023/09/17 11:20:00;;;;;;;31.33;19.05;;;;;;;;;;4964000;28;20117;-80
2023/09/17 11:22:30;;;;;;;32.40;20.88;;;;;;;;;;4970450;28;20057;-79
2023/09/17 11:24:55;;;;;;;27.58;19.38;;;;;;;;;;4977255;28;20034;-79
2023/09/17 11:27:20;;;;;;;29.73;19.50;;;;;;;;;;4984890;28;20041;-79
2023/09/17 11:29:46;;;;;;;29.42;19.15;;;;;;;;;;4999669;28;20376;-79
2023/09/17 11:32:20;;;;;;;30.75;19.67;;;;;;;;;;4995004;28;20026;-79
2023/09/17 11:34:46;;;;;;;30.70;20.38;;;;;;;;;;4972441;28;20041;-79
2023/09/17 11:37:13;;;;;;;26.58;19.30;;;;;;;;;;4971983;28;20399;-79
2023/09/17 11:39:51;;;;;;;32.33;20.35;;;;;;;;;;4991276;28;20483;-78
2023/09/17 11:42:17;;;;;;;27.73;17.52;;;;;;;;;;4989483;28;20030;-78
2023/09/17 11:44:46;;;;;;;29.73;20.38;;;;;;;;;;4973354;28;20023;-78
2023/09/17 11:47:12;;;;;;;30.55;19.02;;;;;;;;;;4970270;28;20035;-83
2023/09/17 11:49:39;;;;;;;27.88;19.10;;;;;;;;;;4970678;28;20112;-83
2023/09/17 11:52:10;;;;;;;25.85;16.83;;;;;;;;;;4982889;28;20053;-83
2023/09/17 11:54:40;;;;;;;31.25;18.55;;;;;;;;;;4972199;28;20112;-83
2023/09/17 11:57:06;;;;;;;34.13;18.00;;;;;;;;;;4989262;28;20428;-79
2023/09/17 11:59:37;;;;;;;25.00;16.52;;;;;;;;;;4993213;28;20029;-79
2023/09/17 12:02:02;;;;;;;28.40;17.95;;;;;;;;;;4992652;28;20513;-79
2023/09/17 12:04:31;;;;;;;30.25;18.25;;;;;;;;;;4990437;28;20102;-79
2023/09/17 12:06:58;;;;;;;28.10;17.02;;;;;;;;;;4988246;28;20494;-79
2023/09/17 12:11:56;;;;;;;26.30;16.02;;;;;;;;;;4977006;28;20034;-79
2023/09/17 12:14:22;;;;;;;26.80;17.02;;;;;;;;;;4968030;28;20125;-79
2023/09/17 12:16:48;;;;;;;25.10;15.73;;;;;;;;;;4964573;28;20259;-79
2023/09/17 12:19:14;;;;;;;25.23;16.58;;;;;;;;;;4973623;28;20465;-79
2023/09/17 12:21:40;;;;;;;26.33;16.77;;;;;;;;;;4968758;28;20112;-79
2023/09/17 12:24:08;;;;;;;26.40;16.60;;;;;;;;;;4961865;28;20368;-79
2023/09/17 12:26:47;;;;;;;27.23;16.95;;;;;;;;;;4988233;28;20022;-79
2023/09/17 12:29:13;;;;;;;24.92;16.85;;;;;;;;;;4990632;28;20064;-79
2023/09/17 12:31:40;;;;;;;26.55;17.13;;;;;;;;;;4991220;28;20070;-79
2023/09/17 12:34:06;;;;;;;26.73;17.33;;;;;;;;;;4984443;28;20516;-79
2023/09/17 12:36:31;;;;;;;25.55;17.15;;;;;;;;;;4994443;28;20113;-79
2023/09/17 12:38:57;;;;;;;26.13;15.82;;;;;;;;;;4971733;28;20121;-79
2023/09/17 12:41:22;;;;;;;24.02;16.70;;;;;;;;;;4969914;28;20054;-79
2023/09/17 12:43:48;;;;;;;24.17;15.57;;;;;;;;;;4965992;28;20031;-79
2023/09/17 12:46:14;;;;;;;23.42;15.35;;;;;;;;;;4975275;28;20397;-79
2023/09/17 12:48:40;;;;;;;24.00;15.90;;;;;;;;;;4971810;28;20041;-79
2023/09/17 12:51:05;;;;;;;21.95;15.82;;;;;;;;;;4989283;28;20439;-80
2023/09/17 12:53:31;;;;;;;22.80;16.05;;;;;;;;;;4982072;28;20027;-79
2023/09/17 12:56:00;;;;;;;23.65;15.38;;;;;;;;;;4976633;28;20376;-78
2023/09/17 12:58:26;;;;;;;22.70;15.25;;;;;;;;;;4966630;28;20034;-78
2023/09/17 13:00:52;;;;;;;22.23;15.43;;;;;;;;;;4991624;28;20027;-78
2023/09/17 13:03:18;;;;;;;24.15;16.10;;;;;;;;;;4985092;28;20429;-79
2023/09/17 13:05:43;;;;;;;24.30;16.10;;;;;;;;;;4977925;28;20553;-82
2023/09/17 13:08:09;;;;;;;25.77;17.23;;;;;;;;;;4984614;28;20027;-81
2023/09/17 13:10:37;;;;;;;24.75;16.27;;;;;;;;;;4981951;28;20379;-82
2023/09/17 13:13:04;;;;;;;23.70;16.27;;;;;;;;;;4991088;28;20556;-83
2023/09/17 13:15:29;;;;;;;25.05;15.43;;;;;;;;;;4984790;28;20113;-82
2023/09/17 13:17:55;;;;;;;22.98;15.27;;;;;;;;;;4990793;28;20106;-82
2023/09/17 13:20:20;;;;;;;22.23;15.18;;;;;;;;;;4977433;28;20030;-82
2023/09/17 13:22:47;;;;;;;21.95;15.65;;;;;;;;;;4991010;28;20030;-82
2023/09/17 13:25:14;;;;;;;21.00;14.88;;;;;;;;;;4966141;28;20483;-82
2023/09/17 13:27:39;;;;;;;22.50;15.45;;;;;;;;;;4974401;28;20034;-82
2023/09/17 13:30:08;;;;;;;22.83;15.30;;;;;;;;;;4970448;28;20023;-82
2023/09/17 13:32:36;;;;;;;24.33;16.17;;;;;;;;;;4996100;28;20464;-82
2023/09/17 13:35:08;;;;;;;20.80;15.05;;;;;;;;;;4975675;28;20372;-82
2023/09/17 13:37:38;;;;;;;23.30;16.05;;;;;;;;;;4983202;28;20026;-81
2023/09/17 13:40:08;;;;;;;21.65;15.68;;;;;;;;;;4999986;28;20034;-82
2023/09/17 13:42:34;;;;;;;20.50;14.98;;;;;;;;;;4980537;28;20022;-82
2023/09/17 13:44:59;;;;;;;20.75;14.80;;;;;;;;;;4968303;28;20026;-82
2023/09/17 13:47:24;;;;;;;21.50;15.35;;;;;;;;;;4992276;28;20042;-82
2023/09/17 13:49:50;;;;;;;20.75;15.43;;;;;;;;;;4996157;28;20070;-82
2023/09/17 13:52:15;;;;;;;22.13;16.02;;;;;;;;;;4974026;28;20049;-81
2023/09/17 13:54:42;;;;;;;21.83;14.88;;;;;;;;;;4989566;28;20038;-82
2023/09/17 13:57:08;;;;;;;19.15;14.05;;;;;;;;;;4984659;28;20034;-82
2023/09/17 13:59:33;;;;;;;23.27;14.52;;;;;;;;;;4985767;28;20026;-82
2023/09/17 14:01:59;;;;;;;19.42;14.18;;;;;;;;;;4976373;28;20064;-82
2023/09/17 14:04:24;;;;;;;20.38;15.00;;;;;;;;;;4984407;28;20122;-82
2023/09/17 14:06:55;;;;;;;19.15;13.23;;;;;;;;;;4976137;28;20085;-83
2023/09/17 14:09:20;;;;;;;18.77;14.15;;;;;;;;;;4987955;28;20026;-83
2023/09/17 14:11:45;;;;;;;20.52;13.40;;;;;;;;;;4991862;28;20029;-83
2023/09/17 14:14:11;;;;;;;22.40;14.35;;;;;;;;;;4974541;28;20113;-83
2023/09/17 14:16:36;;;;;;;21.48;14.68;;;;;;;;;;4972310;28;20109;-79
2023/09/17 14:19:02;;;;;;;18.67;13.32;;;;;;;;;;4992729;28;20029;-78
2023/09/17 14:21:27;;;;;;;18.42;12.77;;;;;;;;;;4982186;28;20034;-79
2023/09/17 14:23:52;;;;;;;20.33;14.82;;;;;;;;;;4969932;28;20497;-78
2023/09/17 14:26:20;;;;;;;17.50;12.05;;;;;;;;;;4962603;28;20398;-78
2023/09/17 14:28:46;;;;;;;19.60;14.88;;;;;;;;;;4974294;28;20030;-79
2023/09/17 14:31:12;;;;;;;18.85;13.63;;;;;;;;;;4984677;28;20034;-78